Falmouth Foreside, Maine
Current Conditions -  °F | °C
As of 7:51 PM on Friday 19 Dec 2014 (Local Time) from KPWM Reporting Station
Clear Clear  
Wind Chill: 22°   Ceiling: Unl
Heat Index: 30°   Visibility: 10mi
Dew Point: 21°   Wind: 9mph
Humidity: 69%   Direction: 350°N
Pressure: 30.07"   Gusts: NA
Location:  43.7506°N, 70.2845°W
Report Text: KPWM 200051Z 35008KT 10SM CLR M01/M06 A3007 RMK AO2 SLP185 T10111061
Loading
Personal Weather Stations






























Interactive Weather Map New forecast layout! Learn more

10-Day Weather Forecast

Advertisements
Track Severe Weather on mobile